Time;durP1;ratioP1;P1;durP2;ratioP2;P2;SDS_P1;SDS_P2;PMS_P1;PMS_P2;Temp;Humidity;BMP_temperature;BMP_pressure;BME280_temperature;BME280_humidity;BME280_pressure;Samples;Min_cycle;Max_cycle;Signal;HPM_P1;HPM_P2
2022/03/03 00:01:46;;;;;;;19.65;11.48;;;5.60;77.50;;;;;;4966441;28;20023;-77
2022/03/03 00:04:12;;;;;;;21.98;13.02;;;5.60;78.40;;;;;;4966996;28;20027;-77
2022/03/03 00:06:38;;;;;;;22.67;12.65;;;5.50;77.90;;;;;;4966616;28;20134;-77
2022/03/03 00:09:05;;;;;;;22.02;12.40;;;5.50;78.10;;;;;;4971236;28;20066;-77
2022/03/03 00:11:31;;;;;;;21.73;11.85;;;5.40;79.10;;;;;;4972047;28;20035;-77
2022/03/03 00:13:58;;;;;;;21.38;12.50;;;5.40;78.30;;;;;;4972704;28;20119;-78
2022/03/03 00:16:27;;;;;;;24.55;11.98;;;5.40;78.20;;;;;;4972809;28;20041;-78
2022/03/03 00:18:53;;;;;;;20.02;11.63;;;5.40;78.30;;;;;;4971970;28;20137;-77
2022/03/03 00:21:19;;;;;;;18.75;11.80;;;5.50;78.00;;;;;;4972447;28;20030;-78
2022/03/03 00:23:45;;;;;;;23.13;12.52;;;5.40;78.70;;;;;;4971514;28;20034;-77
2022/03/03 00:26:10;;;;;;;23.85;12.50;;;5.40;78.30;;;;;;4969674;28;20053;-77
2022/03/03 00:28:36;;;;;;;18.85;11.23;;;5.50;78.10;;;;;;4972058;28;20073;-77
2022/03/03 00:31:03;;;;;;;24.85;13.57;;;5.50;78.10;;;;;;4971983;28;20050;-77
2022/03/03 00:33:29;;;;;;;24.85;12.43;;;5.40;77.90;;;;;;4970958;28;20078;-77
2022/03/03 00:35:54;;;;;;;23.60;13.48;;;5.40;78.60;;;;;;4965540;28;20393;-77
2022/03/03 00:38:20;;;;;;;24.45;13.30;;;5.30;78.60;;;;;;4972086;28;20039;-77
2022/03/03 00:40:46;;;;;;;19.88;12.05;;;5.20;79.80;;;;;;4967731;28;20086;-77
2022/03/03 00:43:12;;;;;;;20.40;11.95;;;5.20;78.50;;;;;;4965844;28;20031;-77
2022/03/03 00:45:38;;;;;;;19.00;12.45;;;5.20;78.50;;;;;;4970636;28;20030;-77
2022/03/03 00:48:05;;;;;;;20.88;12.25;;;5.10;78.90;;;;;;4971240;28;20094;-77
2022/03/03 00:50:31;;;;;;;25.98;13.00;;;5.10;79.20;;;;;;4965249;28;20082;-77
2022/03/03 00:52:57;;;;;;;32.30;13.32;;;5.10;78.70;;;;;;4971403;28;20046;-77
2022/03/03 00:55:22;;;;;;;22.27;12.10;;;5.10;78.90;;;;;;4970314;28;20057;-77
2022/03/03 00:57:48;;;;;;;23.80;12.93;;;5.10;78.90;;;;;;4970837;28;20035;-78
2022/03/03 01:00:14;;;;;;;24.42;13.18;;;5.10;79.10;;;;;;4975054;28;20116;-77
2022/03/03 01:02:40;;;;;;;24.88;13.25;;;5.00;79.20;;;;;;4970561;28;20023;-77
2022/03/03 01:05:06;;;;;;;23.60;12.75;;;4.90;79.30;;;;;;4971252;28;20525;-77
2022/03/03 01:07:32;;;;;;;30.65;12.50;;;4.90;79.60;;;;;;4969778;28;20113;-77
2022/03/03 01:09:58;;;;;;;18.70;10.98;;;4.70;80.10;;;;;;4970359;28;20227;-77
2022/03/03 01:12:24;;;;;;;23.80;12.07;;;4.70;80.00;;;;;;4970235;28;20046;-77
2022/03/03 01:14:49;;;;;;;20.17;10.93;;;4.70;80.30;;;;;;4969766;28;20481;-78
2022/03/03 01:17:16;;;;;;;22.25;11.77;;;4.70;79.70;;;;;;4971623;28;20092;-77
2022/03/03 01:19:42;;;;;;;25.38;12.93;;;4.80;79.60;;;;;;4970274;28;20062;-77
2022/03/03 01:22:08;;;;;;;19.90;12.00;;;4.80;79.50;;;;;;4970751;28;20035;-77
2022/03/03 01:24:34;;;;;;;22.90;12.70;;;4.70;80.40;;;;;;4969604;28;20096;-77
2022/03/03 01:26:59;;;;;;;24.08;12.32;;;4.60;80.20;;;;;;4969926;28;20110;-77
2022/03/03 01:29:25;;;;;;;23.33;12.40;;;4.50;80.70;;;;;;4971718;28;20441;-77
2022/03/03 01:31:51;;;;;;;20.85;11.95;;;4.60;80.00;;;;;;4970655;28;20026;-78
2022/03/03 01:34:17;;;;;;;23.70;12.18;;;4.70;80.20;;;;;;4970044;28;20046;-77
2022/03/03 01:36:43;;;;;;;22.08;13.30;;;4.70;80.00;;;;;;4971644;28;20038;-77
2022/03/03 01:39:09;;;;;;;23.30;13.27;;;4.70;79.70;;;;;;4968417;28;20078;-77
2022/03/03 01:41:35;;;;;;;24.20;13.38;;;4.90;78.90;;;;;;4970723;28;20039;-77
2022/03/03 01:44:00;;;;;;;24.73;13.90;;;5.00;79.00;;;;;;4969776;28;20033;-77
2022/03/03 01:46:26;;;;;;;22.25;13.02;;;4.90;79.30;;;;;;4970338;28;20031;-77
2022/03/03 01:48:51;;;;;;;23.38;12.23;;;4.90;79.10;;;;;;4971067;28;20474;-77
2022/03/03 01:51:17;;;;;;;20.83;12.25;;;4.80;79.10;;;;;;4968312;28;20038;-77
2022/03/03 01:53:43;;;;;;;21.90;12.98;;;4.80;79.20;;;;;;4969633;28;20053;-77
2022/03/03 01:56:09;;;;;;;22.55;12.55;;;4.90;79.00;;;;;;4970753;28;20050;-77
2022/03/03 01:58:36;;;;;;;23.00;11.60;;;5.00;78.40;;;;;;4970153;28;20031;-77
2022/03/03 02:01:03;;;;;;;24.65;14.45;;;5.00;78.80;;;;;;4971267;28;20035;-77
2022/03/03 02:03:28;;;;;;;24.30;13.07;;;5.00;78.40;;;;;;4969082;28;20074;-77
2022/03/03 02:05:54;;;;;;;22.17;13.45;;;4.80;79.00;;;;;;4970084;28;20051;-77
2022/03/03 02:08:22;;;;;;;24.40;13.20;;;4.70;79.30;;;;;;4965455;28;20035;-78
2022/03/03 02:10:48;;;;;;;25.60;14.02;;;4.70;79.80;;;;;;4970932;28;20561;-77
2022/03/03 02:13:14;;;;;;;24.83;14.38;;;4.70;79.50;;;;;;4969986;28;20055;-77
2022/03/03 02:15:47;;;;;;;20.10;12.18;;;4.90;79.10;;;;;;4970551;28;20093;-77
2022/03/03 02:18:13;;;;;;;18.88;11.05;;;4.90;78.80;;;;;;4970167;28;20126;-78
2022/03/03 02:20:38;;;;;;;22.73;11.63;;;5.10;78.50;;;;;;4966454;28;20459;-77
2022/03/03 02:23:04;;;;;;;18.85;11.60;;;4.90;79.00;;;;;;4967063;28;20031;-77
2022/03/03 02:25:30;;;;;;;24.33;12.50;;;4.90;79.00;;;;;;4970179;28;20034;-77
2022/03/03 02:27:56;;;;;;;22.80;13.18;;;4.90;78.90;;;;;;4964981;28;20041;-77
2022/03/03 02:30:21;;;;;;;27.00;13.43;;;5.10;78.30;;;;;;4973574;28;20033;-77
2022/03/03 02:32:47;;;;;;;20.05;11.85;;;5.00;78.80;;;;;;4973397;28;20043;-77
2022/03/03 02:35:13;;;;;;;24.08;12.35;;;4.90;79.70;;;;;;4973714;28;20031;-78
2022/03/03 02:37:42;;;;;;;28.52;14.02;;;4.90;79.60;;;;;;4972294;28;20045;-77
2022/03/03 02:40:11;;;;;;;25.42;13.80;;;4.90;79.70;;;;;;4974492;28;20058;-77
2022/03/03 02:42:37;;;;;;;20.95;12.05;;;4.80;79.70;;;;;;4969182;28;20023;-77
2022/03/03 02:45:04;;;;;;;28.13;14.48;;;4.70;79.90;;;;;;4974290;28;20477;-77
2022/03/03 02:47:30;;;;;;;22.20;13.00;;;4.80;79.70;;;;;;4972367;28;20513;-77
2022/03/03 02:49:56;;;;;;;22.85;12.90;;;4.80;79.40;;;;;;4973122;28;20528;-77
2022/03/03 02:52:23;;;;;;;22.85;13.07;;;4.90;78.90;;;;;;4973130;28;20047;-77
2022/03/03 02:54:49;;;;;;;23.73;14.00;;;4.90;79.20;;;;;;4973653;28;20031;-77
2022/03/03 03:00:00;;;;;;;24.35;13.93;;;4.80;79.50;;;;;;4973590;28;20175;-77
2022/03/03 03:02:25;;;;;;;26.00;14.20;;;4.70;80.50;;;;;;4972379;28;20034;-77
2022/03/03 03:04:51;;;;;;;25.38;14.15;;;4.60;80.50;;;;;;4972505;28;20031;-77
2022/03/03 03:07:17;;;;;;;26.05;15.10;;;4.60;80.30;;;;;;4973538;28;20038;-77
2022/03/03 03:09:42;;;;;;;24.42;15.27;;;4.60;80.70;;;;;;4972687;28;20064;-78
2022/03/03 03:12:08;;;;;;;25.80;15.82;;;4.50;80.30;;;;;;4973047;28;20047;-77
2022/03/03 03:14:34;;;;;;;31.02;15.20;;;4.50;81.20;;;;;;4972286;28;20086;-77
2022/03/03 03:17:00;;;;;;;22.17;12.02;;;4.50;81.60;;;;;;4973026;28;20038;-77
2022/03/03 03:19:26;;;;;;;24.08;11.68;;;4.40;81.60;;;;;;4973366;28;20385;-77
2022/03/03 03:21:52;;;;;;;23.45;13.70;;;4.40;82.30;;;;;;4973522;28;20118;-77
2022/03/03 03:24:18;;;;;;;29.95;12.68;;;4.30;82.00;;;;;;4971041;28;20030;-78
2022/03/03 03:26:43;;;;;;;25.60;13.30;;;4.30;81.70;;;;;;4972784;28;20546;-77
2022/03/03 03:29:09;;;;;;;25.02;13.20;;;4.40;81.10;;;;;;4972828;28;20035;-77
2022/03/03 03:31:35;;;;;;;21.50;13.48;;;4.40;81.60;;;;;;4972248;28;20760;-77
2022/03/03 03:34:00;;;;;;;23.55;13.63;;;4.30;81.70;;;;;;4969948;28;20050;-77
2022/03/03 03:36:26;;;;;;;20.92;11.35;;;4.30;81.40;;;;;;4973049;28;20046;-77
2022/03/03 03:38:52;;;;;;;25.83;14.05;;;4.20;81.50;;;;;;4970645;28;20034;-77
2022/03/03 03:41:17;;;;;;;24.42;14.38;;;4.20;81.70;;;;;;4973253;28;20057;-77
2022/03/03 03:43:43;;;;;;;23.05;12.77;;;4.40;81.10;;;;;;4971188;28;20041;-77
2022/03/03 03:46:09;;;;;;;24.98;13.05;;;4.40;81.10;;;;;;4972426;28;20129;-77
2022/03/03 03:48:34;;;;;;;19.75;12.05;;;4.40;80.40;;;;;;4972805;28;20088;-77
2022/03/03 03:51:00;;;;;;;23.75;12.45;;;4.30;80.60;;;;;;4972784;28;20034;-77
2022/03/03 03:53:26;;;;;;;22.60;12.52;;;4.30;81.00;;;;;;4972073;28;20049;-77
2022/03/03 03:55:51;;;;;;;22.85;11.55;;;4.20;81.50;;;;;;4972230;28;20034;-78
2022/03/03 03:58:17;;;;;;;23.08;13.27;;;4.00;82.40;;;;;;4971047;28;20073;-77
2022/03/03 04:00:43;;;;;;;22.60;12.63;;;4.00;81.60;;;;;;4963381;28;20031;-76
2022/03/03 04:03:09;;;;;;;22.58;12.88;;;4.00;81.90;;;;;;4966316;28;20066;-76
2022/03/03 04:05:35;;;;;;;23.63;13.75;;;3.90;83.30;;;;;;4963423;28;20054;-76
2022/03/03 04:08:01;;;;;;;23.70;13.60;;;3.80;82.40;;;;;;4962778;28;20039;-76
2022/03/03 04:10:28;;;;;;;22.40;12.30;;;3.60;83.30;;;;;;4962862;28;20031;-76
2022/03/03 04:12:55;;;;;;;23.83;13.02;;;3.50;83.40;;;;;;4964744;28;20038;-76
2022/03/03 04:15:21;;;;;;;24.95;12.63;;;3.50;82.70;;;;;;4964118;28;20042;-76
2022/03/03 04:17:46;;;;;;;29.13;13.60;;;3.60;82.50;;;;;;4963452;28;20038;-76
2022/03/03 04:20:12;;;;;;;28.15;14.77;;;3.60;82.10;;;;;;4956097;28;20117;-76
2022/03/03 04:22:39;;;;;;;25.27;13.02;;;3.60;82.10;;;;;;4961330;28;20042;-76
2022/03/03 04:25:05;;;;;;;24.25;13.43;;;3.60;82.00;;;;;;4960326;28;20120;-76
2022/03/03 04:27:31;;;;;;;24.10;13.07;;;3.50;82.00;;;;;;4963771;28;20676;-76
2022/03/03 04:29:56;;;;;;;22.42;13.70;;;3.50;82.10;;;;;;4960701;28;20034;-76
2022/03/03 04:32:22;;;;;;;22.60;13.23;;;3.40;82.50;;;;;;4957865;28;20127;-76
2022/03/03 04:34:47;;;;;;;23.10;12.75;;;3.30;82.70;;;;;;4964206;28;20038;-76
2022/03/03 04:37:13;;;;;;;25.88;14.20;;;3.20;82.50;;;;;;4962835;28;20121;-76
2022/03/03 04:39:39;;;;;;;29.02;13.63;;;3.30;82.40;;;;;;4955813;28;20042;-76
2022/03/03 04:42:05;;;;;;;23.58;12.88;;;3.10;82.70;;;;;;4954937;28;20041;-77
2022/03/03 04:44:31;;;;;;;29.67;13.77;;;2.90;83.30;;;;;;4963918;28;20034;-77
2022/03/03 04:46:56;;;;;;;25.98;13.85;;;2.80;83.60;;;;;;4964324;28;20472;-77
2022/03/03 04:49:22;;;;;;;28.20;13.65;;;2.70;83.90;;;;;;4964602;28;20038;-77
2022/03/03 04:51:48;;;;;;;29.85;14.65;;;2.70;84.30;;;;;;4962457;28;20496;-77
2022/03/03 04:54:16;;;;;;;24.58;13.38;;;2.80;83.60;;;;;;4967278;28;20042;-76
2022/03/03 04:56:42;;;;;;;26.92;13.32;;;2.90;83.70;;;;;;4963404;28;20437;-77
2022/03/03 04:59:08;;;;;;;24.85;14.38;;;3.10;83.10;;;;;;4959934;28;20117;-77
2022/03/03 05:01:34;;;;;;;23.05;13.10;;;3.00;82.80;;;;;;4963865;28;20034;-76
2022/03/03 05:03:59;;;;;;;22.52;12.57;;;3.00;82.70;;;;;;4964096;28;20474;-77
2022/03/03 05:06:25;;;;;;;24.40;13.95;;;3.20;82.40;;;;;;4963830;28;20130;-77
2022/03/03 05:08:51;;;;;;;26.17;12.90;;;2.90;82.70;;;;;;4964227;28;20092;-76
2022/03/03 05:11:16;;;;;;;22.38;13.20;;;2.90;83.20;;;;;;4956061;28;20051;-76
2022/03/03 05:13:42;;;;;;;30.65;13.40;;;2.80;83.30;;;;;;4963992;28;20053;-76
2022/03/03 05:16:08;;;;;;;22.67;13.25;;;2.80;83.20;;;;;;4959508;28;20568;-76
2022/03/03 05:18:33;;;;;;;22.30;12.68;;;2.80;83.60;;;;;;4960304;28;20039;-75
2022/03/03 05:21:00;;;;;;;24.33;12.60;;;2.90;82.60;;;;;;4953633;28;20069;-75
2022/03/03 05:23:25;;;;;;;23.95;14.02;;;3.00;82.40;;;;;;4949185;28;20027;-75
2022/03/03 05:25:51;;;;;;;24.35;12.75;;;2.90;82.60;;;;;;4963208;28;20034;-76
2022/03/03 05:28:17;;;;;;;23.00;12.00;;;3.10;82.20;;;;;;4964008;28;20088;-75
2022/03/03 05:30:42;;;;;;;24.10;13.98;;;3.20;81.70;;;;;;4964101;28;20400;-76
2022/03/03 05:33:08;;;;;;;24.10;12.30;;;3.10;81.80;;;;;;4964618;28;20393;-76
2022/03/03 05:35:34;;;;;;;20.42;11.73;;;3.10;82.20;;;;;;4963431;28;20058;-76
2022/03/03 05:38:00;;;;;;;22.05;13.07;;;3.00;82.40;;;;;;4963442;28;20686;-75
2022/03/03 05:40:26;;;;;;;23.15;12.10;;;2.70;83.10;;;;;;4961862;28;20133;-76
2022/03/03 05:42:52;;;;;;;21.80;12.73;;;2.70;83.40;;;;;;4959561;28;20516;-76
2022/03/03 05:45:18;;;;;;;22.05;12.98;;;2.90;82.80;;;;;;4961340;28;20031;-76
2022/03/03 05:47:45;;;;;;;24.50;12.05;;;3.00;82.30;;;;;;4962946;28;20101;-75
2022/03/03 05:50:11;;;;;;;25.60;13.75;;;2.90;82.50;;;;;;4963621;28;20093;-76
2022/03/03 05:52:36;;;;;;;21.98;12.30;;;2.90;82.70;;;;;;4962695;28;20738;-75
2022/03/03 05:55:04;;;;;;;27.33;11.52;;;2.90;82.40;;;;;;4963338;28;20034;-75
2022/03/03 05:57:36;;;;;;;25.83;12.75;;;3.00;82.20;;;;;;4963749;28;20049;-76
2022/03/03 06:00:14;;;;;;;31.58;14.20;;;2.70;83.00;;;;;;4963637;28;20777;-75
2022/03/03 06:02:47;;;;;;;23.92;12.35;;;2.80;82.90;;;;;;4965163;28;21585;-76
2022/03/03 06:05:13;;;;;;;19.65;11.23;;;2.60;83.00;;;;;;4967111;28;20035;-75
2022/03/03 06:07:44;;;;;;;24.50;12.00;;;2.50;83.60;;;;;;4967232;28;20034;-76
2022/03/03 06:10:13;;;;;;;25.95;13.02;;;2.40;84.10;;;;;;4965091;28;20374;-75
2022/03/03 06:12:47;;;;;;;22.20;13.05;;;2.40;84.10;;;;;;4965413;28;20594;-75
2022/03/03 06:15:14;;;;;;;27.50;13.88;;;2.50;84.00;;;;;;4967879;28;20093;-75
2022/03/03 06:17:43;;;;;;;21.50;12.73;;;2.60;83.80;;;;;;4966928;28;20038;-76
2022/03/03 06:20:10;;;;;;;21.20;12.82;;;2.70;83.40;;;;;;4965561;28;20022;-75
2022/03/03 06:22:36;;;;;;;25.38;13.23;;;2.60;83.50;;;;;;4966954;28;20031;-75
2022/03/03 06:25:01;;;;;;;23.98;13.00;;;2.50;84.00;;;;;;4966304;28;20350;-75
2022/03/03 06:27:30;;;;;;;26.23;12.20;;;2.50;83.90;;;;;;4963465;28;20049;-76
2022/03/03 06:29:56;;;;;;;20.88;12.05;;;2.60;83.80;;;;;;4968293;28;20038;-78
2022/03/03 06:32:22;;;;;;;27.40;13.40;;;2.60;83.70;;;;;;4967495;28;20027;-77
2022/03/03 06:34:48;;;;;;;23.35;12.50;;;2.70;83.70;;;;;;4967559;28;20030;-79
2022/03/03 06:37:14;;;;;;;21.58;12.15;;;2.70;83.70;;;;;;4961894;28;20109;-77
2022/03/03 06:39:39;;;;;;;21.95;12.18;;;2.70;83.70;;;;;;4966316;28;20034;-76
2022/03/03 06:42:06;;;;;;;20.63;11.45;;;2.60;83.60;;;;;;4967526;28;20626;-74
2022/03/03 06:44:31;;;;;;;23.75;12.18;;;3.60;86.70;;;;;;4962145;28;20031;-79
2022/03/03 06:46:57;;;;;;;22.27;12.00;;;4.30;85.00;;;;;;4967796;28;20146;-77
2022/03/03 06:49:23;;;;;;;22.40;12.27;;;3.60;81.70;;;;;;4965666;28;20122;-78
2022/03/03 06:51:50;;;;;;;23.42;12.48;;;3.30;82.10;;;;;;4968087;28;20031;-78
2022/03/03 06:54:21;;;;;;;22.85;12.52;;;2.90;82.70;;;;;;4967660;28;20039;-77
2022/03/03 06:56:53;;;;;;;22.85;11.80;;;2.80;83.10;;;;;;4967282;28;20031;-78
2022/03/03 06:59:23;;;;;;;28.17;14.30;;;2.60;83.60;;;;;;4963256;28;20106;-78
2022/03/03 07:01:50;;;;;;;25.88;13.85;;;2.80;83.60;;;;;;4961399;28;20039;-78
2022/03/03 07:04:18;;;;;;;23.90;13.18;;;3.20;82.60;;;;;;4962838;28;20043;-78
2022/03/03 07:06:44;;;;;;;25.48;12.50;;;3.20;82.90;;;;;;4963545;28;20137;-79
2022/03/03 07:09:10;;;;;;;24.08;12.45;;;3.10;83.30;;;;;;4960817;28;20376;-77
2022/03/03 07:11:38;;;;;;;24.48;11.95;;;3.00;83.40;;;;;;4964753;28;20042;-77
2022/03/03 07:14:05;;;;;;;26.77;12.07;;;2.80;84.40;;;;;;4967309;28;20038;-77
2022/03/03 07:16:39;;;;;;;23.95;11.88;;;2.60;84.50;;;;;;4964178;28;20075;-77
2022/03/03 07:19:07;;;;;;;22.27;12.02;;;2.60;85.30;;;;;;4966171;28;20503;-78
2022/03/03 07:22:06;;;;;;;24.02;12.73;;;2.60;85.60;;;;;;4966491;28;20038;-78
2022/03/03 07:24:46;;;;;;;22.77;13.23;;;2.70;85.30;;;;;;4962158;28;20126;-78
2022/03/03 07:27:20;;;;;;;22.73;12.90;;;2.80;85.10;;;;;;4961865;28;20031;-77
2022/03/03 07:29:50;;;;;;;23.08;12.38;;;2.90;84.80;;;;;;4967784;28;20094;-77
2022/03/03 07:32:19;;;;;;;24.83;12.95;;;2.90;84.50;;;;;;4967435;28;20051;-78
2022/03/03 07:34:53;;;;;;;29.50;13.77;;;3.00;85.00;;;;;;4968197;28;20045;-77
2022/03/03 07:37:25;;;;;;;29.77;13.73;;;2.90;85.10;;;;;;4967811;28;20049;-81
2022/03/03 07:39:58;;;;;;;24.20;13.93;;;2.70;85.90;;;;;;4967879;28;20120;-79
2022/03/03 07:42:24;;;;;;;22.98;12.80;;;2.70;85.10;;;;;;4963673;28;20046;-79
2022/03/03 07:44:49;;;;;;;24.90;14.45;;;2.70;85.00;;;;;;4964365;28;20035;-80
2022/03/03 07:47:15;;;;;;;24.33;14.00;;;2.80;85.60;;;;;;4960188;28;20038;-79
2022/03/03 07:49:42;;;;;;;26.83;14.50;;;2.80;86.00;;;;;;4966552;28;20038;-82
2022/03/03 07:52:08;;;;;;;25.67;12.93;;;2.80;86.20;;;;;;4968180;28;20045;-80
2022/03/03 07:54:34;;;;;;;26.83;14.25;;;2.70;86.10;;;;;;4968458;28;20093;-79
2022/03/03 07:57:01;;;;;;;24.73;14.18;;;2.80;86.10;;;;;;4968651;28;20031;-79
2022/03/03 07:59:33;;;;;;;22.25;12.52;;;2.80;86.10;;;;;;4968707;28;20035;-79
2022/03/03 08:02:02;;;;;;;23.20;12.45;;;2.90;86.70;;;;;;4967592;28;20043;-80
2022/03/03 08:04:30;;;;;;;19.02;11.30;;;3.00;86.70;;;;;;4967260;28;20019;-81
2022/03/03 08:07:05;;;;;;;24.27;13.18;;;3.00;85.60;;;;;;4964987;28;20585;-80
2022/03/03 08:09:33;;;;;;;22.60;12.52;;;3.00;85.70;;;;;;4956498;28;20045;-78
2022/03/03 08:12:02;;;;;;;27.50;12.63;;;3.10;83.80;;;;;;4966479;28;20034;-78
2022/03/03 08:14:29;;;;;;;22.48;12.80;;;3.30;83.30;;;;;;4967440;28;20125;-78
2022/03/03 08:16:55;;;;;;;24.65;12.75;;;3.40;83.70;;;;;;4968254;28;20161;-80
2022/03/03 08:19:22;;;;;;;25.30;13.25;;;3.50;84.10;;;;;;4967353;28;20129;-80
2022/03/03 08:21:48;;;;;;;21.17;12.00;;;3.50;83.80;;;;;;4967535;28;20494;-81
2022/03/03 08:24:14;;;;;;;21.88;11.60;;;3.60;82.80;;;;;;4963034;28;20039;-86
2022/03/03 08:26:42;;;;;;;22.52;12.57;;;3.60;82.20;;;;;;4958361;28;20061;-79
2022/03/03 08:29:08;;;;;;;25.52;12.68;;;3.70;82.30;;;;;;4965476;28;20473;-81
2022/03/03 08:31:42;;;;;;;21.85;11.77;;;3.70;81.70;;;;;;4965967;28;20113;-80
2022/03/03 08:34:35;;;;;;;25.20;13.27;;;3.80;82.50;;;;;;4965870;28;20039;-80
2022/03/03 08:37:06;;;;;;;24.95;12.88;;;3.80;81.90;;;;;;4962755;28;20038;-78
2022/03/03 08:39:37;;;;;;;27.63;14.20;;;4.00;82.30;;;;;;4966619;28;20038;-79
2022/03/03 08:42:04;;;;;;;20.20;11.50;;;4.00;82.50;;;;;;4965811;28;20035;-78
2022/03/03 08:44:34;;;;;;;23.13;12.45;;;4.10;82.40;;;;;;4966457;28;20122;-85
2022/03/03 08:47:03;;;;;;;26.35;12.73;;;4.10;82.40;;;;;;4966458;28;20477;-80
2022/03/03 08:49:33;;;;;;;23.27;11.57;;;4.20;82.20;;;;;;4964933;28;20066;-79
2022/03/03 08:52:02;;;;;;;19.70;11.20;;;4.20;82.20;;;;;;4965608;28;20035;-79
2022/03/03 08:54:28;;;;;;;22.52;13.25;;;4.30;82.00;;;;;;4958054;28;20047;-80
2022/03/03 08:56:54;;;;;;;22.40;11.32;;;4.40;81.50;;;;;;4958729;28;20038;-80
2022/03/03 08:59:20;;;;;;;21.23;12.02;;;4.50;81.50;;;;;;4961246;28;20365;-80
2022/03/03 09:01:46;;;;;;;18.67;10.55;;;4.50;79.80;;;;;;4959641;28;20073;-80
2022/03/03 09:04:12;;;;;;;23.85;11.48;;;4.50;79.40;;;;;;4957422;28;20074;-80
2022/03/03 09:06:38;;;;;;;21.83;11.38;;;4.60;78.80;;;;;;4956854;28;20054;-86
2022/03/03 09:09:03;;;;;;;19.75;11.25;;;4.70;79.60;;;;;;4966080;28;20030;-79
2022/03/03 09:11:29;;;;;;;20.45;11.07;;;4.70;79.50;;;;;;4966950;28;20491;-79
2022/03/03 09:13:55;;;;;;;20.00;11.25;;;4.80;79.00;;;;;;4966995;28;20065;-79
2022/03/03 09:16:21;;;;;;;22.60;11.93;;;4.80;78.60;;;;;;4966972;28;20163;-79
2022/03/03 09:18:48;;;;;;;19.65;12.07;;;5.00;78.90;;;;;;4966351;28;20038;-86
2022/03/03 09:21:14;;;;;;;19.73;11.75;;;5.10;78.40;;;;;;4966616;28;20073;-79
2022/03/03 09:23:41;;;;;;;24.05;12.45;;;5.10;78.00;;;;;;4966282;28;20173;-83
2022/03/03 09:26:07;;;;;;;19.90;11.02;;;5.10;77.90;;;;;;4966744;28;20658;-88
2022/03/03 09:28:32;;;;;;;22.65;11.60;;;5.20;77.50;;;;;;4967361;28;20043;-79
2022/03/03 09:30:59;;;;;;;20.65;11.15;;;5.30;77.70;;;;;;4966921;28;20038;-77
2022/03/03 09:33:26;;;;;;;20.10;11.27;;;5.40;77.30;;;;;;4967212;28;20043;-79
2022/03/03 09:35:51;;;;;;;20.80;11.52;;;5.60;77.00;;;;;;4955230;28;20437;-79
2022/03/03 09:38:17;;;;;;;21.73;11.40;;;5.70;76.90;;;;;;4960027;28;20150;-79
2022/03/03 09:40:44;;;;;;;23.10;12.02;;;5.70;76.80;;;;;;4959998;28;20027;-80
2022/03/03 09:43:10;;;;;;;21.80;11.32;;;5.80;76.50;;;;;;4956519;28;20121;-78
2022/03/03 09:45:37;;;;;;;22.45;12.10;;;5.80;76.70;;;;;;4954777;28;20161;-79
2022/03/03 09:48:06;;;;;;;21.42;12.43;;;5.80;76.60;;;;;;4964493;28;20034;-79
2022/03/03 09:50:35;;;;;;;23.38;13.38;;;5.90;76.80;;;;;;4963218;28;20041;-84
2022/03/03 09:53:05;;;;;;;23.88;13.23;;;5.90;76.60;;;;;;4964107;28;20055;-80
2022/03/03 09:55:31;;;;;;;24.55;12.07;;;6.00;76.80;;;;;;4964576;28;20862;-78
2022/03/03 09:57:57;;;;;;;20.45;11.43;;;6.10;76.70;;;;;;4965920;28;20041;-79
2022/03/03 10:00:22;;;;;;;22.33;12.13;;;6.10;75.90;;;;;;4965270;28;20050;-78
2022/03/03 10:02:56;;;;;;;33.15;16.02;;;6.10;75.70;;;;;;4964091;28;20023;-79
2022/03/03 10:05:33;;;;;;;23.90;12.23;;;6.30;75.60;;;;;;4953978;28;20070;-79
2022/03/03 10:08:00;;;;;;;22.52;14.00;;;6.50;75.70;;;;;;4956086;28;20401;-80
2022/03/03 10:10:25;;;;;;;24.98;12.23;;;6.70;74.90;;;;;;4964175;28;20031;-80
2022/03/03 10:12:53;;;;;;;22.15;12.18;;;6.80;73.20;;;;;;4960447;28;20039;-79
2022/03/03 10:15:20;;;;;;;20.42;11.27;;;6.90;72.60;;;;;;4964127;28;20129;-78
2022/03/03 10:17:46;;;;;;;20.13;12.68;;;6.80;72.50;;;;;;4965235;28;20169;-79
2022/03/03 10:20:12;;;;;;;25.13;13.98;;;6.80;72.30;;;;;;4965623;28;20077;-79
2022/03/03 10:22:58;;;;;;;23.17;13.52;;;6.90;72.10;;;;;;4965440;28;20523;-79
2022/03/03 10:25:33;;;;;;;31.95;21.50;;;7.20;72.10;;;;;;4964501;28;20027;-79
2022/03/03 10:28:25;;;;;;;23.52;14.20;;;7.40;71.70;;;;;;4964078;28;20062;-79
2022/03/03 10:31:03;;;;;;;22.17;11.68;;;7.60;72.90;;;;;;4961317;28;20038;-78
2022/03/03 10:33:49;;;;;;;25.45;14.32;;;7.80;72.60;;;;;;4955020;28;20076;-78
2022/03/03 10:36:23;;;;;;;20.45;11.55;;;7.80;72.40;;;;;;4961425;28;20125;-81
2022/03/03 10:38:51;;;;;;;20.27;11.23;;;7.80;72.10;;;;;;4962584;28;20026;-79
2022/03/03 10:41:51;;;;;;;19.95;11.27;;;8.00;71.90;;;;;;4954094;28;20106;-79
2022/03/03 10:44:31;;;;;;;19.02;11.43;;;7.90;71.00;;;;;;4953465;28;20081;-82
2022/03/03 10:47:07;;;;;;;24.33;11.20;;;7.90;70.70;;;;;;4954305;28;20038;-79
2022/03/03 10:49:35;;;;;;;19.63;11.43;;;8.10;71.60;;;;;;4966057;28;20084;-81
2022/03/03 10:52:20;;;;;;;17.15;10.50;;;8.20;70.60;;;;;;4967937;28;20035;-78
2022/03/03 10:54:54;;;;;;;19.30;10.05;;;8.20;70.30;;;;;;4962877;28;20134;-80
2022/03/03 10:57:59;;;;;;;20.10;11.65;;;8.20;70.10;;;;;;4962237;28;20039;-81
2022/03/03 11:00:30;;;;;;;22.13;10.55;;;8.40;71.20;;;;;;4951157;28;20039;-79
2022/03/03 11:02:58;;;;;;;19.70;10.27;;;8.50;69.70;;;;;;4964694;28;20104;-78
2022/03/03 11:05:26;;;;;;;23.23;11.77;;;8.50;69.50;;;;;;4967836;28;20047;-87
2022/03/03 11:07:53;;;;;;;20.42;11.02;;;8.60;69.70;;;;;;4968629;28;20524;-79
2022/03/03 11:10:24;;;;;;;18.45;11.13;;;8.80;68.60;;;;;;4963023;28;20027;-81
2022/03/03 11:12:51;;;;;;;15.60;10.00;;;8.90;68.80;;;;;;4968581;28;20050;-79
2022/03/03 11:15:19;;;;;;;20.02;9.50;;;9.20;69.10;;;;;;4968335;28;20027;-79
2022/03/03 11:17:45;;;;;;;19.67;11.85;;;9.20;69.50;;;;;;4968045;28;20593;-80
2022/03/03 11:20:14;;;;;;;20.65;12.27;;;9.40;70.10;;;;;;4968093;28;20469;-79
2022/03/03 11:22:41;;;;;;;19.58;12.80;;;9.40;69.20;;;;;;4967801;28;20042;-79
2022/03/03 11:25:14;;;;;;;25.52;13.68;;;9.60;69.90;;;;;;4968395;28;20031;-79
2022/03/03 11:27:42;;;;;;;22.55;13.65;;;9.70;69.50;;;;;;4968144;28;20065;-80
2022/03/03 11:30:30;;;;;;;25.52;13.57;;;9.80;69.30;;;;;;4967711;28;20127;-79
2022/03/03 11:33:27;;;;;;;33.03;13.38;;;9.80;70.10;;;;;;4967821;28;20034;-79
2022/03/03 11:35:58;;;;;;;21.42;13.10;;;9.70;69.30;;;;;;4966529;28;20030;-79
2022/03/03 11:38:27;;;;;;;25.08;12.23;;;9.90;70.50;;;;;;4967892;28;20165;-79
2022/03/03 11:41:01;;;;;;;24.58;14.18;;;9.80;69.90;;;;;;4969802;28;20027;-79
2022/03/03 11:43:28;;;;;;;24.50;14.02;;;9.90;70.10;;;;;;4970475;28;20034;-80
2022/03/03 11:45:56;;;;;;;25.52;13.80;;;9.80;68.80;;;;;;4969700;28;20066;-84
2022/03/03 11:48:23;;;;;;;20.77;12.68;;;9.70;68.60;;;;;;4969718;28;20085;-80
2022/03/03 11:50:51;;;;;;;22.75;14.20;;;9.60;68.60;;;;;;4969493;28;20125;-79
2022/03/03 11:53:24;;;;;;;24.48;14.35;;;9.70;69.40;;;;;;4968875;28;20101;-81
2022/03/03 11:56:02;;;;;;;24.45;12.65;;;10.10;70.00;;;;;;4968033;28;20168;-79
2022/03/03 11:58:36;;;;;;;21.55;12.73;;;10.60;69.00;;;;;;4969872;28;20081;-80
2022/03/03 12:01:05;;;;;;;22.60;12.20;;;10.70;68.00;;;;;;4967887;28;20058;-79
2022/03/03 12:03:32;;;;;;;25.23;12.07;;;10.50;66.50;;;;;;4970270;28;20105;-79
2022/03/03 12:06:05;;;;;;;27.23;13.13;;;10.50;67.00;;;;;;4968752;28;20047;-79
2022/03/03 12:08:42;;;;;;;22.92;12.40;;;10.80;67.30;;;;;;4969599;28;20061;-79
2022/03/03 12:11:18;;;;;;;21.17;12.30;;;10.90;66.20;;;;;;4969526;28;20038;-79
2022/03/03 12:13:44;;;;;;;27.08;12.43;;;10.90;66.60;;;;;;4969662;28;20046;-78
2022/03/03 12:16:23;;;;;;;20.05;11.77;;;11.30;67.10;;;;;;4969157;28;20089;-84
2022/03/03 12:18:54;;;;;;;15.43;10.70;;;11.50;65.10;;;;;;4968925;28;20043;-81
2022/03/03 12:21:36;;;;;;;18.45;11.20;;;11.60;65.30;;;;;;4969102;28;20030;-79
2022/03/03 12:24:14;;;;;;;22.92;12.00;;;11.60;64.70;;;;;;4968707;28;20045;-80
2022/03/03 12:26:55;;;;;;;21.40;11.50;;;12.10;65.40;;;;;;4968626;28;20034;-82
2022/03/03 12:29:39;;;;;;;18.75;10.93;;;12.20;64.00;;;;;;4968759;28;20034;-79
2022/03/03 12:32:37;;;;;;;20.53;11.87;;;11.80;63.20;;;;;;4964674;28;20043;-79
2022/03/03 12:35:09;;;;;;;22.20;12.98;;;11.60;63.60;;;;;;4968716;28;20278;-79
2022/03/03 12:37:49;;;;;;;20.35;12.50;;;12.20;65.80;;;;;;4968271;28;20035;-79
2022/03/03 12:40:17;;;;;;;22.60;13.15;;;12.50;65.50;;;;;;4962248;28;20026;-81
2022/03/03 12:42:46;;;;;;;23.17;13.27;;;12.80;65.70;;;;;;4967339;28;20086;-80
2022/03/03 12:45:17;;;;;;;19.27;12.57;;;12.80;64.70;;;;;;4969179;28;20137;-79